• Join FlightAware (Why Join?)
  • Login
  • US Flag 
Rudolph Flight #1: Arrived! 
01:55PM EST


 

Airport Tracker/Info


-or-


 

Live Flight TrackerFlight Track Log ✈ CTL22 ✈ 18-Jul-2013 ✈ KARB - KGRR

Flight Track Log - Related Links

Times and Time Zones

All times are in EDT time to prevent confusion due to time zone crossing. See the CTL22 flight status page for this flight to view local times or setup timezone preferences in your user account.

Time Position Orientation Groundspeed Altitude Reporting Facility
EDT Latitude Longitude Course Direction KTS MPH feet Rate Location/Type
10:07PM 42.4211 -83.8883 294° West 152 175 6,000  Level Cleveland Center
10:08PM 42.4383 -83.9397 294° West 151 174 6,100 -60 Climbing Cleveland Center
10:10PM 42.4164 -84.0043 245° Southwest  Level FlightAware Approximate
10:17PM 42.5165 -84.3241 297° West  Level Estimated
10:18PM 42.5287 -84.3709 290° West  Level FlightAware Approximate
10:19PM 42.5410 -84.4178 290° West  Level FlightAware Approximate
10:20PM 42.5532 -84.4646 290° West  Level FlightAware Approximate
10:21PM 42.5655 -84.5115 290° West  Level FlightAware Approximate
10:22PM 42.5777 -84.5583 289° West  Level FlightAware Approximate
10:23PM 42.5899 -84.6052 289° West  Level FlightAware Approximate
10:24PM 42.6020 -84.6521 289° West  Level FlightAware Approximate
10:25PM 42.6142 -84.6991 289° West  Level FlightAware Approximate
10:26PM 42.6263 -84.7460 289° West  Level FlightAware Approximate
10:27PM 42.6384 -84.7930 289° West  Level FlightAware Approximate
10:28PM 42.6505 -84.8399 289° West  Level FlightAware Approximate
10:29PM 42.6626 -84.8869 289° West  Level FlightAware Approximate
10:29PM 42.7697 -85.0547 298° West 157 181 5,100  Level Chicago Center
10:30PM 42.6746 -84.9340 289° West  Level FlightAware Approximate
10:31PM 42.6866 -84.9810 289° West  Level FlightAware Approximate
10:31PM 42.7856 -85.1119 291° West 160 184 4,500  Level Chicago Center
10:32PM 42.7028 -85.0257 299° West  Level Estimated
10:32PM 42.7997 -85.1692 289° West 160 184 3,900  Level Chicago Center
10:33PM 42.7180 -85.0710 295° West  Level FlightAware Approximate
10:33PM 42.8161 -85.2250 292° West 160 184 3,400  Level Chicago Center
10:34PM 42.7342 -85.1157 299° West  Level Estimated
10:34PM 42.8344 -85.2939 290° West 160 184 2,900  Level Chicago Center
10:35PM 42.7512 -85.1599 298° West  Level FlightAware Approximate
10:35PM 42.8497 -85.3481 291° West 156 180 2,500  Level Chicago Center
10:36PM 42.8661 -85.4042 292° West 157 181 2,100 -540 Descending Chicago Center
10:37PM 42.8778 -85.4644 285° West 160 184 1,500 -600 Descending Chicago Center
10:38PM 42.8792 -85.5136 272° West 143 165 900 -600 Descending Chicago Center
10:40PM 42.8667 -85.5167 294° West  Level FlightAware Approximate